McDonald, Tennessee
Current Conditions -  °F | °C
As of 2:15 AM on Sunday 26 Oct 2014 (Local Time) from KRZR Reporting Station
Broken Clouds Broken Clouds  
Wind Chill: 54°   Ceiling: 3200
Heat Index: 54°   Visibility: 6mi
Dew Point: 52°   Wind: 0mph
Humidity: 94%   Direction: NA
Pressure: 30.02"   Gusts: NA
Location:  35.11°N, 84.98°W
Report Text: KRZR 260615Z AUTO 00000KT 6SM BKN032 12/11 A3002 RMK
Loading
Personal Weather Stations






























Interactive Weather Map
Tropical Storm Tracking
New forecast layout! Learn more

10-Day Weather Forecast

Advertisements
Track Severe Weather on mobile